Wednesday, July 23, 2014
22:16 UTC
  |  Log In   |  Register Free
Airport Search:

Fairfield County Airport
(KFDW)

Fairfield County Airport Diagram
No Airport Diagram Available

FAA data valid effective May 29, 2014 until July 24, 2014 (unless otherwise noted).

 
 
 
 
 
 
 
 
 
 
 
 
 
 

Current Aviation Weather for Fairfield County Airport (KFDW)

The most recent METAR observation for KFDW was updated at: 2155 UTC
METAR Summary (Translated METAR)
KFDW
232155Z AUTO 23007KT 10SM SCT045 32/20 A2998 RMK AO1
KCUB
(21.5 nm SE from KFDW)
232053Z AUTO 17006KT 10SM FEW050 FEW060 32/22 A2998 RMK AO2 SLP149 T03220222 56022
TAF Summary (Translated TAF)
KCUB
(21.5 nm SE from KFDW)
232031Z 2321/2418 23006KT P6SM SCT035 BKN090 FM240100 VRB03KT P6SM SCT035 BKN120 FM240900 00000KT P6SM SCT010 SCT150 FM241300 25008KT P6SM SCT040 SCT250
KCAE
(22.6 nm SW from KFDW)
232031Z 2321/2418 23006KT P6SM SCT035 BKN090 FM240100 VRB03KT P6SM SCT035 BKN120 FM240900 VRB03KT P6SM SCT010 SCT150 FM241300 25009KT P6SM SCT040 SCT250
  Airport Weather Conditions for KFDW

 Current Weather at FDW
90° F
Partly Cloudy
Southwest winds at 8.1 mph
FDW NOAA Radar

Pressure: 29.98 in
Humidity: 49%
Wind: Southwest at 8.1 MPH (7 KT)
Dew Point: 68.0°F
Visibility: 10.00 mi


Airport Weather Forecast for KFDW

Translated METAR and TAF for KFDW
Translated METAR for KFDW (2209 UTC 23 July 2014)
found at http://aviationweather.gov/adds/metars/
 
METAR text: KFDW 232155Z AUTO 23007KT 10SM SCT045 32/20 A2998 RMK AO1
Conditions at: KFDW (WINNSBORO , SC, US) observed 2155 UTC 23 July 2014
Temperature: 32.0°C (90°F)
Dewpoint: 20.0°C (68°F) [RH = 49%]
Pressure (altimeter): 29.98 inches Hg (1015.3 mb)
Winds: from the SW (230 degrees) at 8 MPH (7 knots; 3.6 m/s)
Visibility: 10 or more miles (16+ km)
Ceiling: at least 12,000 feet AGL
Clouds: scattered clouds at 4500 feet AGL
Weather: automated observation with no human augmentation;
there may or may not be significant weather present at this time
Translated TAF for KFDW

There is no translated TAF available for this airport

Find All Airport Services Find A Hotel Find A Rental Car Find A Golf Course Find A Restaurant $100 Hamburger



FBO's on the Field
FBO Company Facility Photos Services Transportation Aviation Fuel Prices: Prices include tax
Catering Weather Repair Courtesy Rental Type 100LL JetA JetA+ MOGAS 8087
 
S & S Aviation Services

This FBO has not yet been rated
FS:Shell
Last Updated: Jul-17
Login to update fuel prices
SS:
Contact S & S Aviation ServicesMore FBO Information
 
Add another FBO Facility Photos Catering Weather Repair Courtesy Rental Type 100LL JetA JetA+ MOGAS 8087
Services Transportation Aviation Fuel Prices: Prices include tax


GlobalAir.com Airport Resource Center model-print
model-print
model-print
model-print